sensor_id;sensor_type;location;lat;lon;timestamp;P1;durP1;ratioP1;P2;durP2;ratioP2
79149;SDS011;68563;45.644;13.782;2023-04-03T00:02:07;1.00;;;0.70;;
79149;SDS011;68563;45.644;13.782;2023-04-03T00:04:32;1.00;;;0.90;;
79149;SDS011;68563;45.644;13.782;2023-04-03T00:06:58;0.70;;;0.60;;
79149;SDS011;68563;45.644;13.782;2023-04-03T00:09:23;0.73;;;0.70;;
79149;SDS011;68563;45.644;13.782;2023-04-03T00:11:48;0.50;;;0.50;;
79149;SDS011;68563;45.644;13.782;2023-04-03T00:14:14;1.08;;;0.60;;
79149;SDS011;68563;45.644;13.782;2023-04-03T00:16:39;1.23;;;0.60;;
79149;SDS011;68563;45.644;13.782;2023-04-03T00:19:05;2.05;;;0.80;;
79149;SDS011;68563;45.644;13.782;2023-04-03T00:21:30;1.63;;;0.80;;
79149;SDS011;68563;45.644;13.782;2023-04-03T00:23:56;1.33;;;0.80;;
79149;SDS011;68563;45.644;13.782;2023-04-03T00:26:22;0.70;;;0.60;;
79149;SDS011;68563;45.644;13.782;2023-04-03T00:28:47;1.13;;;0.70;;
79149;SDS011;68563;45.644;13.782;2023-04-03T00:31:14;1.23;;;0.80;;
79149;SDS011;68563;45.644;13.782;2023-04-03T00:33:40;1.10;;;1.00;;
79149;SDS011;68563;45.644;13.782;2023-04-03T00:36:09;1.00;;;0.77;;
79149;SDS011;68563;45.644;13.782;2023-04-03T00:38:35;2.47;;;0.90;;
79149;SDS011;68563;45.644;13.782;2023-04-03T00:41:01;1.23;;;0.82;;
79149;SDS011;68563;45.644;13.782;2023-04-03T00:43:27;0.98;;;0.90;;
79149;SDS011;68563;45.644;13.782;2023-04-03T00:45:54;1.02;;;0.70;;
79149;SDS011;68563;45.644;13.782;2023-04-03T00:51:07;1.23;;;1.10;;
79149;SDS011;68563;45.644;13.782;2023-04-03T00:53:40;1.10;;;1.00;;
79149;SDS011;68563;45.644;13.782;2023-04-03T00:56:10;0.80;;;0.80;;
79149;SDS011;68563;45.644;13.782;2023-04-03T01:01:07;1.00;;;0.90;;
79149;SDS011;68563;45.644;13.782;2023-04-03T01:03:35;1.95;;;0.90;;
79149;SDS011;68563;45.644;13.782;2023-04-03T01:06:01;1.08;;;0.98;;
79149;SDS011;68563;45.644;13.782;2023-04-03T01:08:26;1.30;;;1.10;;
79149;SDS011;68563;45.644;13.782;2023-04-03T01:10:52;1.60;;;1.30;;
79149;SDS011;68563;45.644;13.782;2023-04-03T01:13:22;1.40;;;1.00;;
79149;SDS011;68563;45.644;13.782;2023-04-03T01:15:53;1.52;;;1.30;;
79149;SDS011;68563;45.644;13.782;2023-04-03T01:18:19;2.80;;;1.08;;
79149;SDS011;68563;45.644;13.782;2023-04-03T01:23:35;1.35;;;1.00;;
79149;SDS011;68563;45.644;13.782;2023-04-03T01:26:09;1.20;;;1.10;;
79149;SDS011;68563;45.644;13.782;2023-04-03T01:28:36;4.30;;;1.35;;
79149;SDS011;68563;45.644;13.782;2023-04-03T01:34:03;1.63;;;1.30;;
79149;SDS011;68563;45.644;13.782;2023-04-03T01:36:29;2.13;;;1.40;;
79149;SDS011;68563;45.644;13.782;2023-04-03T01:38:56;1.35;;;1.13;;
79149;SDS011;68563;45.644;13.782;2023-04-03T01:41:24;1.52;;;1.27;;
79149;SDS011;68563;45.644;13.782;2023-04-03T01:43:50;1.42;;;1.33;;
79149;SDS011;68563;45.644;13.782;2023-04-03T01:46:16;1.50;;;1.30;;
79149;SDS011;68563;45.644;13.782;2023-04-03T01:48:42;1.70;;;1.40;;
79149;SDS011;68563;45.644;13.782;2023-04-03T01:51:08;2.13;;;1.30;;
79149;SDS011;68563;45.644;13.782;2023-04-03T01:53:33;1.73;;;1.45;;
79149;SDS011;68563;45.644;13.782;2023-04-03T01:55:59;1.80;;;1.50;;
79149;SDS011;68563;45.644;13.782;2023-04-03T01:58:25;1.52;;;1.40;;
79149;SDS011;68563;45.644;13.782;2023-04-03T02:00:50;1.67;;;1.40;;
79149;SDS011;68563;45.644;13.782;2023-04-03T02:03:16;3.53;;;1.73;;
79149;SDS011;68563;45.644;13.782;2023-04-03T02:05:42;1.60;;;1.30;;
79149;SDS011;68563;45.644;13.782;2023-04-03T02:08:08;3.13;;;1.70;;
79149;SDS011;68563;45.644;13.782;2023-04-03T02:10:33;1.92;;;1.50;;
79149;SDS011;68563;45.644;13.782;2023-04-03T02:12:59;1.95;;;1.55;;
79149;SDS011;68563;45.644;13.782;2023-04-03T02:15:24;1.85;;;1.30;;
79149;SDS011;68563;45.644;13.782;2023-04-03T02:17:50;2.15;;;1.40;;
79149;SDS011;68563;45.644;13.782;2023-04-03T02:20:16;1.88;;;1.70;;
79149;SDS011;68563;45.644;13.782;2023-04-03T02:22:41;3.95;;;1.67;;
79149;SDS011;68563;45.644;13.782;2023-04-03T02:25:07;2.35;;;1.75;;
79149;SDS011;68563;45.644;13.782;2023-04-03T02:27:32;2.83;;;1.70;;
79149;SDS011;68563;45.644;13.782;2023-04-03T02:29:58;2.00;;;1.80;;
79149;SDS011;68563;45.644;13.782;2023-04-03T02:32:23;2.20;;;1.70;;
79149;SDS011;68563;45.644;13.782;2023-04-03T02:34:49;2.60;;;1.88;;
79149;SDS011;68563;45.644;13.782;2023-04-03T02:37:14;2.58;;;1.60;;
79149;SDS011;68563;45.644;13.782;2023-04-03T02:39:40;1.77;;;1.63;;
79149;SDS011;68563;45.644;13.782;2023-04-03T02:42:05;2.08;;;1.67;;
79149;SDS011;68563;45.644;13.782;2023-04-03T02:44:31;2.83;;;1.98;;
79149;SDS011;68563;45.644;13.782;2023-04-03T02:46:56;2.75;;;1.80;;
79149;SDS011;68563;45.644;13.782;2023-04-03T02:49:21;2.20;;;1.70;;
79149;SDS011;68563;45.644;13.782;2023-04-03T02:51:47;2.08;;;1.88;;
79149;SDS011;68563;45.644;13.782;2023-04-03T02:54:12;1.88;;;1.50;;
79149;SDS011;68563;45.644;13.782;2023-04-03T02:56:38;3.47;;;1.92;;
79149;SDS011;68563;45.644;13.782;2023-04-03T02:59:03;2.47;;;1.88;;
79149;SDS011;68563;45.644;13.782;2023-04-03T03:01:30;2.60;;;2.20;;
79149;SDS011;68563;45.644;13.782;2023-04-03T03:03:57;2.28;;;1.70;;
79149;SDS011;68563;45.644;13.782;2023-04-03T03:06:23;2.17;;;1.83;;
79149;SDS011;68563;45.644;13.782;2023-04-03T03:08:49;2.00;;;1.80;;
79149;SDS011;68563;45.644;13.782;2023-04-03T03:11:14;2.20;;;1.80;;
79149;SDS011;68563;45.644;13.782;2023-04-03T03:13:40;2.13;;;1.70;;
79149;SDS011;68563;45.644;13.782;2023-04-03T03:16:06;2.78;;;1.80;;
79149;SDS011;68563;45.644;13.782;2023-04-03T03:18:32;2.17;;;1.83;;
79149;SDS011;68563;45.644;13.782;2023-04-03T03:20:59;2.08;;;1.52;;
79149;SDS011;68563;45.644;13.782;2023-04-03T03:23:26;2.20;;;1.80;;
79149;SDS011;68563;45.644;13.782;2023-04-03T03:25:56;2.85;;;2.15;;
79149;SDS011;68563;45.644;13.782;2023-04-03T03:28:26;3.03;;;1.77;;
79149;SDS011;68563;45.644;13.782;2023-04-03T03:30:52;3.08;;;1.80;;
79149;SDS011;68563;45.644;13.782;2023-04-03T03:33:18;2.28;;;1.73;;
79149;SDS011;68563;45.644;13.782;2023-04-03T03:35:44;2.75;;;1.70;;
79149;SDS011;68563;45.644;13.782;2023-04-03T03:38:10;5.32;;;1.90;;
79149;SDS011;68563;45.644;13.782;2023-04-03T03:40:35;2.20;;;1.88;;
79149;SDS011;68563;45.644;13.782;2023-04-03T03:43:01;2.13;;;1.80;;
79149;SDS011;68563;45.644;13.782;2023-04-03T03:45:26;5.25;;;1.75;;
79149;SDS011;68563;45.644;13.782;2023-04-03T03:47:52;1.67;;;1.50;;
79149;SDS011;68563;45.644;13.782;2023-04-03T03:50:17;2.13;;;1.55;;
79149;SDS011;68563;45.644;13.782;2023-04-03T03:52:43;2.70;;;1.55;;
79149;SDS011;68563;45.644;13.782;2023-04-03T03:55:08;1.75;;;1.42;;
79149;SDS011;68563;45.644;13.782;2023-04-03T03:57:34;1.80;;;1.50;;
79149;SDS011;68563;45.644;13.782;2023-04-03T04:00:00;2.25;;;1.50;;
79149;SDS011;68563;45.644;13.782;2023-04-03T04:02:25;2.00;;;1.60;;
79149;SDS011;68563;45.644;13.782;2023-04-03T04:04:51;1.80;;;1.40;;
79149;SDS011;68563;45.644;13.782;2023-04-03T04:07:17;2.13;;;1.27;;
79149;SDS011;68563;45.644;13.782;2023-04-03T04:09:42;1.90;;;1.50;;
79149;SDS011;68563;45.644;13.782;2023-04-03T04:12:07;1.65;;;1.35;;
79149;SDS011;68563;45.644;13.782;2023-04-03T04:14:33;1.90;;;1.30;;
79149;SDS011;68563;45.644;13.782;2023-04-03T04:16:58;1.90;;;1.35;;
79149;SDS011;68563;45.644;13.782;2023-04-03T04:19:23;1.85;;;1.52;;
79149;SDS011;68563;45.644;13.782;2023-04-03T04:21:49;2.53;;;1.40;;
79149;SDS011;68563;45.644;13.782;2023-04-03T04:24:15;3.40;;;1.58;;
79149;SDS011;68563;45.644;13.782;2023-04-03T04:26:40;3.05;;;1.60;;
79149;SDS011;68563;45.644;13.782;2023-04-03T04:29:05;2.22;;;1.70;;
79149;SDS011;68563;45.644;13.782;2023-04-03T04:31:31;1.55;;;1.15;;
79149;SDS011;68563;45.644;13.782;2023-04-03T04:33:56;2.05;;;1.55;;
79149;SDS011;68563;45.644;13.782;2023-04-03T04:36:22;4.03;;;1.70;;
79149;SDS011;68563;45.644;13.782;2023-04-03T04:38:47;2.22;;;1.48;;
79149;SDS011;68563;45.644;13.782;2023-04-03T04:41:12;1.95;;;1.10;;
79149;SDS011;68563;45.644;13.782;2023-04-03T04:43:38;1.67;;;1.40;;
79149;SDS011;68563;45.644;13.782;2023-04-03T04:46:07;2.08;;;1.40;;
79149;SDS011;68563;45.644;13.782;2023-04-03T04:48:35;3.22;;;1.50;;
79149;SDS011;68563;45.644;13.782;2023-04-03T04:51:01;2.03;;;1.70;;
79149;SDS011;68563;45.644;13.782;2023-04-03T04:53:26;1.70;;;1.20;;
79149;SDS011;68563;45.644;13.782;2023-04-03T04:55:52;2.03;;;1.67;;
79149;SDS011;68563;45.644;13.782;2023-04-03T04:58:18;1.90;;;1.27;;
79149;SDS011;68563;45.644;13.782;2023-04-03T05:00:44;2.15;;;1.60;;
79149;SDS011;68563;45.644;13.782;2023-04-03T05:03:09;1.48;;;1.35;;
79149;SDS011;68563;45.644;13.782;2023-04-03T05:05:35;2.15;;;1.35;;
79149;SDS011;68563;45.644;13.782;2023-04-03T05:08:01;1.80;;;1.30;;
79149;SDS011;68563;45.644;13.782;2023-04-03T05:10:27;2.13;;;1.40;;
79149;SDS011;68563;45.644;13.782;2023-04-03T05:12:52;3.83;;;1.90;;
79149;SDS011;68563;45.644;13.782;2023-04-03T05:15:18;1.90;;;1.60;;
79149;SDS011;68563;45.644;13.782;2023-04-03T05:17:43;3.22;;;1.52;;
79149;SDS011;68563;45.644;13.782;2023-04-03T05:20:09;1.65;;;1.20;;
79149;SDS011;68563;45.644;13.782;2023-04-03T05:22:34;1.45;;;1.20;;
79149;SDS011;68563;45.644;13.782;2023-04-03T05:25:00;1.73;;;1.33;;
79149;SDS011;68563;45.644;13.782;2023-04-03T05:27:25;1.83;;;1.50;;
79149;SDS011;68563;45.644;13.782;2023-04-03T05:29:53;2.05;;;1.60;;
79149;SDS011;68563;45.644;13.782;2023-04-03T05:32:19;2.38;;;1.50;;
79149;SDS011;68563;45.644;13.782;2023-04-03T05:34:45;1.58;;;1.30;;
79149;SDS011;68563;45.644;13.782;2023-04-03T05:37:10;1.30;;;1.10;;
79149;SDS011;68563;45.644;13.782;2023-04-03T05:39:36;2.60;;;1.40;;
79149;SDS011;68563;45.644;13.782;2023-04-03T05:42:03;2.28;;;1.70;;
79149;SDS011;68563;45.644;13.782;2023-04-03T05:44:29;2.03;;;1.50;;
79149;SDS011;68563;45.644;13.782;2023-04-03T05:46:54;1.92;;;1.38;;
79149;SDS011;68563;45.644;13.782;2023-04-03T05:49:19;2.63;;;1.52;;
79149;SDS011;68563;45.644;13.782;2023-04-03T05:51:45;1.95;;;1.42;;
79149;SDS011;68563;45.644;13.782;2023-04-03T05:54:24;2.03;;;1.45;;
79149;SDS011;68563;45.644;13.782;2023-04-03T05:56:51;1.65;;;1.20;;
79149;SDS011;68563;45.644;13.782;2023-04-03T05:59:17;2.60;;;1.65;;
79149;SDS011;68563;45.644;13.782;2023-04-03T06:01:43;2.15;;;1.55;;
79149;SDS011;68563;45.644;13.782;2023-04-03T06:04:08;2.75;;;1.70;;
79149;SDS011;68563;45.644;13.782;2023-04-03T06:06:47;2.10;;;1.05;;
79149;SDS011;68563;45.644;13.782;2023-04-03T06:09:21;1.77;;;1.20;;
79149;SDS011;68563;45.644;13.782;2023-04-03T06:11:47;1.90;;;1.30;;
79149;SDS011;68563;45.644;13.782;2023-04-03T06:14:13;3.13;;;1.60;;
79149;SDS011;68563;45.644;13.782;2023-04-03T06:16:41;1.55;;;1.10;;
79149;SDS011;68563;45.644;13.782;2023-04-03T06:19:07;2.00;;;1.30;;
79149;SDS011;68563;45.644;13.782;2023-04-03T06:21:33;2.08;;;1.70;;
79149;SDS011;68563;45.644;13.782;2023-04-03T06:24:01;2.03;;;1.60;;
79149;SDS011;68563;45.644;13.782;2023-04-03T06:26:27;1.58;;;1.20;;
79149;SDS011;68563;45.644;13.782;2023-04-03T06:28:53;2.13;;;1.50;;
79149;SDS011;68563;45.644;13.782;2023-04-03T06:31:19;1.50;;;1.30;;
79149;SDS011;68563;45.644;13.782;2023-04-03T06:33:44;1.70;;;1.25;;
79149;SDS011;68563;45.644;13.782;2023-04-03T06:36:10;2.05;;;1.48;;
79149;SDS011;68563;45.644;13.782;2023-04-03T06:38:37;1.20;;;1.10;;
79149;SDS011;68563;45.644;13.782;2023-04-03T06:41:02;2.80;;;1.60;;
79149;SDS011;68563;45.644;13.782;2023-04-03T06:43:28;1.10;;;0.90;;
79149;SDS011;68563;45.644;13.782;2023-04-03T06:45:53;1.95;;;1.13;;
79149;SDS011;68563;45.644;13.782;2023-04-03T06:48:19;1.40;;;1.10;;
79149;SDS011;68563;45.644;13.782;2023-04-03T06:50:44;1.63;;;1.20;;
79149;SDS011;68563;45.644;13.782;2023-04-03T06:53:10;1.70;;;1.10;;
79149;SDS011;68563;45.644;13.782;2023-04-03T06:55:36;2.10;;;1.10;;
79149;SDS011;68563;45.644;13.782;2023-04-03T06:58:02;1.42;;;1.05;;
79149;SDS011;68563;45.644;13.782;2023-04-03T07:00:28;1.40;;;1.23;;
79149;SDS011;68563;45.644;13.782;2023-04-03T07:02:54;2.05;;;1.60;;
79149;SDS011;68563;45.644;13.782;2023-04-03T07:05:21;1.50;;;1.20;;
79149;SDS011;68563;45.644;13.782;2023-04-03T07:07:47;1.40;;;1.20;;
79149;SDS011;68563;45.644;13.782;2023-04-03T07:10:12;1.52;;;0.90;;
79149;SDS011;68563;45.644;13.782;2023-04-03T07:12:37;1.38;;;1.10;;
79149;SDS011;68563;45.644;13.782;2023-04-03T07:15:04;1.63;;;1.20;;
79149;SDS011;68563;45.644;13.782;2023-04-03T07:17:30;1.70;;;1.30;;
79149;SDS011;68563;45.644;13.782;2023-04-03T07:19:56;1.70;;;1.40;;
79149;SDS011;68563;45.644;13.782;2023-04-03T07:22:21;1.70;;;1.13;;
79149;SDS011;68563;45.644;13.782;2023-04-03T07:24:47;1.92;;;1.17;;
79149;SDS011;68563;45.644;13.782;2023-04-03T07:27:12;1.98;;;1.25;;
79149;SDS011;68563;45.644;13.782;2023-04-03T07:29:38;3.33;;;1.30;;
79149;SDS011;68563;45.644;13.782;2023-04-03T07:32:04;1.40;;;1.25;;
79149;SDS011;68563;45.644;13.782;2023-04-03T07:34:30;1.15;;;0.93;;
79149;SDS011;68563;45.644;13.782;2023-04-03T07:36:56;1.48;;;1.20;;
79149;SDS011;68563;45.644;13.782;2023-04-03T07:39:22;1.60;;;1.10;;
79149;SDS011;68563;45.644;13.782;2023-04-03T07:41:48;2.35;;;1.70;;
79149;SDS011;68563;45.644;13.782;2023-04-03T07:44:13;1.30;;;1.17;;
79149;SDS011;68563;45.644;13.782;2023-04-03T07:46:39;1.27;;;1.10;;
79149;SDS011;68563;45.644;13.782;2023-04-03T07:49:05;1.25;;;1.08;;
79149;SDS011;68563;45.644;13.782;2023-04-03T07:51:32;1.58;;;1.20;;
79149;SDS011;68563;45.644;13.782;2023-04-03T07:53:57;2.65;;;1.00;;
79149;SDS011;68563;45.644;13.782;2023-04-03T07:56:22;2.65;;;1.17;;
79149;SDS011;68563;45.644;13.782;2023-04-03T07:58:48;1.50;;;1.02;;
79149;SDS011;68563;45.644;13.782;2023-04-03T08:01:13;1.50;;;0.93;;
79149;SDS011;68563;45.644;13.782;2023-04-03T08:03:39;1.77;;;1.15;;
79149;SDS011;68563;45.644;13.782;2023-04-03T08:06:05;1.38;;;1.13;;
79149;SDS011;68563;45.644;13.782;2023-04-03T08:08:32;1.58;;;0.98;;
79149;SDS011;68563;45.644;13.782;2023-04-03T08:10:58;1.45;;;1.00;;
79149;SDS011;68563;45.644;13.782;2023-04-03T08:13:25;1.55;;;1.02;;
79149;SDS011;68563;45.644;13.782;2023-04-03T08:15:50;1.60;;;0.90;;
79149;SDS011;68563;45.644;13.782;2023-04-03T08:18:16;1.60;;;1.17;;
79149;SDS011;68563;45.644;13.782;2023-04-03T08:20:42;1.92;;;1.23;;
79149;SDS011;68563;45.644;13.782;2023-04-03T08:23:08;2.28;;;1.48;;
79149;SDS011;68563;45.644;13.782;2023-04-03T08:25:37;1.48;;;1.00;;
79149;SDS011;68563;45.644;13.782;2023-04-03T08:28:06;3.38;;;1.08;;
79149;SDS011;68563;45.644;13.782;2023-04-03T08:30:32;1.70;;;1.00;;
79149;SDS011;68563;45.644;13.782;2023-04-03T08:33:00;1.98;;;1.08;;
79149;SDS011;68563;45.644;13.782;2023-04-03T08:35:26;1.90;;;1.27;;
79149;SDS011;68563;45.644;13.782;2023-04-03T08:37:51;1.50;;;1.00;;
79149;SDS011;68563;45.644;13.782;2023-04-03T08:40:17;1.52;;;1.20;;
79149;SDS011;68563;45.644;13.782;2023-04-03T08:45:26;1.55;;;1.10;;
79149;SDS011;68563;45.644;13.782;2023-04-03T08:48:21;1.20;;;1.00;;
79149;SDS011;68563;45.644;13.782;2023-04-03T08:50:51;2.13;;;1.23;;
79149;SDS011;68563;45.644;13.782;2023-04-03T08:53:24;2.35;;;1.20;;
79149;SDS011;68563;45.644;13.782;2023-04-03T08:55:53;2.60;;;1.48;;
79149;SDS011;68563;45.644;13.782;2023-04-03T08:58:24;1.48;;;1.27;;
79149;SDS011;68563;45.644;13.782;2023-04-03T09:01:00;1.20;;;1.10;;
79149;SDS011;68563;45.644;13.782;2023-04-03T09:03:40;1.15;;;1.05;;
79149;SDS011;68563;45.644;13.782;2023-04-03T09:06:07;1.83;;;1.30;;
79149;SDS011;68563;45.644;13.782;2023-04-03T09:11:28;1.42;;;1.13;;
79149;SDS011;68563;45.644;13.782;2023-04-03T09:20:41;2.03;;;1.23;;
79149;SDS011;68563;45.644;13.782;2023-04-03T09:23:15;1.80;;;1.10;;
79149;SDS011;68563;45.644;13.782;2023-04-03T09:25:46;1.02;;;0.88;;
79149;SDS011;68563;45.644;13.782;2023-04-03T09:28:13;3.97;;;1.48;;
79149;SDS011;68563;45.644;13.782;2023-04-03T09:30:39;3.05;;;1.10;;
79149;SDS011;68563;45.644;13.782;2023-04-03T09:33:05;3.35;;;1.27;;
79149;SDS011;68563;45.644;13.782;2023-04-03T09:35:33;1.77;;;1.13;;
79149;SDS011;68563;45.644;13.782;2023-04-03T09:38:14;2.85;;;1.20;;
79149;SDS011;68563;45.644;13.782;2023-04-03T09:40:40;1.50;;;1.35;;
79149;SDS011;68563;45.644;13.782;2023-04-03T09:45:42;1.60;;;1.00;;
79149;SDS011;68563;45.644;13.782;2023-04-03T09:48:15;2.85;;;1.05;;
79149;SDS011;68563;45.644;13.782;2023-04-03T09:56:26;1.00;;;0.88;;
79149;SDS011;68563;45.644;13.782;2023-04-03T10:01:29;1.25;;;0.80;;
79149;SDS011;68563;45.644;13.782;2023-04-03T10:06:49;1.08;;;0.90;;
79149;SDS011;68563;45.644;13.782;2023-04-03T10:09:24;1.23;;;0.90;;
79149;SDS011;68563;45.644;13.782;2023-04-03T10:11:59;2.40;;;1.00;;
79149;SDS011;68563;45.644;13.782;2023-04-03T10:14:33;1.10;;;0.90;;
79149;SDS011;68563;45.644;13.782;2023-04-03T10:20:27;2.65;;;1.10;;
79149;SDS011;68563;45.644;13.782;2023-04-03T10:23:00;0.80;;;0.80;;
79149;SDS011;68563;45.644;13.782;2023-04-03T10:30:58;1.67;;;1.10;;
79149;SDS011;68563;45.644;13.782;2023-04-03T10:33:39;1.25;;;1.00;;
79149;SDS011;68563;45.644;13.782;2023-04-03T10:44:16;2.50;;;1.10;;
79149;SDS011;68563;45.644;13.782;2023-04-03T10:54:39;1.67;;;1.00;;
79149;SDS011;68563;45.644;13.782;2023-04-03T10:57:11;1.30;;;0.93;;
79149;SDS011;68563;45.644;13.782;2023-04-03T10:59:47;2.13;;;0.85;;
79149;SDS011;68563;45.644;13.782;2023-04-03T11:05:34;1.30;;;0.98;;
79149;SDS011;68563;45.644;13.782;2023-04-03T11:07:57;1.40;;;1.10;;
79149;SDS011;68563;45.644;13.782;2023-04-03T11:10:36;2.00;;;1.50;;
79149;SDS011;68563;45.644;13.782;2023-04-03T11:15:41;1.15;;;0.93;;
79149;SDS011;68563;45.644;13.782;2023-04-03T11:18:13;1.88;;;0.80;;
79149;SDS011;68563;45.644;13.782;2023-04-03T11:20:53;1.23;;;1.02;;
79149;SDS011;68563;45.644;13.782;2023-04-03T11:23:26;1.00;;;0.90;;
79149;SDS011;68563;45.644;13.782;2023-04-03T11:29:00;1.40;;;0.90;;
79149;SDS011;68563;45.644;13.782;2023-04-03T11:31:37;1.23;;;1.00;;
79149;SDS011;68563;45.644;13.782;2023-04-03T11:34:26;1.63;;;1.08;;
79149;SDS011;68563;45.644;13.782;2023-04-03T11:36:57;1.98;;;1.05;;
79149;SDS011;68563;45.644;13.782;2023-04-03T11:39:26;1.52;;;0.95;;
79149;SDS011;68563;45.644;13.782;2023-04-03T11:41:55;1.20;;;0.90;;
79149;SDS011;68563;45.644;13.782;2023-04-03T12:05:57;1.52;;;1.23;;
79149;SDS011;68563;45.644;13.782;2023-04-03T12:16:20;1.45;;;0.98;;
79149;SDS011;68563;45.644;13.782;2023-04-03T12:18:56;1.08;;;0.73;;
79149;SDS011;68563;45.644;13.782;2023-04-03T12:26:36;2.30;;;1.00;;
79149;SDS011;68563;45.644;13.782;2023-04-03T12:29:33;1.25;;;0.95;;
79149;SDS011;68563;45.644;13.782;2023-04-03T12:40:24;0.93;;;0.70;;
79149;SDS011;68563;45.644;13.782;2023-04-03T12:43:14;0.80;;;0.70;;
79149;SDS011;68563;45.644;13.782;2023-04-03T12:45:58;0.93;;;0.70;;
79149;SDS011;68563;45.644;13.782;2023-04-03T12:48:38;0.90;;;0.77;;
79149;SDS011;68563;45.644;13.782;2023-04-03T12:54:04;2.28;;;0.98;;
79149;SDS011;68563;45.644;13.782;2023-04-03T12:56:38;0.80;;;0.77;;
79149;SDS011;68563;45.644;13.782;2023-04-03T12:59:24;1.52;;;0.90;;
79149;SDS011;68563;45.644;13.782;2023-04-03T13:01:55;1.75;;;0.80;;
79149;SDS011;68563;45.644;13.782;2023-04-03T13:04:23;2.58;;;0.90;;
79149;SDS011;68563;45.644;13.782;2023-04-03T13:06:49;2.67;;;1.10;;
79149;SDS011;68563;45.644;13.782;2023-04-03T13:14:25;1.40;;;1.10;;
79149;SDS011;68563;45.644;13.782;2023-04-03T13:19:19;1.33;;;0.80;;
79149;SDS011;68563;45.644;13.782;2023-04-03T13:21:45;0.90;;;0.70;;
79149;SDS011;68563;45.644;13.782;2023-04-03T13:24:11;1.15;;;0.85;;
79149;SDS011;68563;45.644;13.782;2023-04-03T13:26:37;2.40;;;0.90;;
79149;SDS011;68563;45.644;13.782;2023-04-03T13:29:07;0.63;;;0.63;;
79149;SDS011;68563;45.644;13.782;2023-04-03T13:31:46;1.63;;;0.90;;
79149;SDS011;68563;45.644;13.782;2023-04-03T13:34:12;1.88;;;0.90;;
79149;SDS011;68563;45.644;13.782;2023-04-03T13:41:43;2.25;;;0.88;;
79149;SDS011;68563;45.644;13.782;2023-04-03T13:44:17;1.17;;;0.90;;
79149;SDS011;68563;45.644;13.782;2023-04-03T13:46:46;0.88;;;0.70;;
79149;SDS011;68563;45.644;13.782;2023-04-03T13:51:43;2.30;;;0.98;;
79149;SDS011;68563;45.644;13.782;2023-04-03T13:54:22;1.80;;;1.00;;
79149;SDS011;68563;45.644;13.782;2023-04-03T13:56:55;1.40;;;0.98;;
79149;SDS011;68563;45.644;13.782;2023-04-03T13:59:24;1.48;;;0.82;;
79149;SDS011;68563;45.644;13.782;2023-04-03T14:04:33;1.38;;;0.90;;
79149;SDS011;68563;45.644;13.782;2023-04-03T14:07:09;1.13;;;0.90;;
79149;SDS011;68563;45.644;13.782;2023-04-03T14:09:35;0.90;;;0.80;;
79149;SDS011;68563;45.644;13.782;2023-04-03T14:12:08;1.13;;;1.00;;
79149;SDS011;68563;45.644;13.782;2023-04-03T14:14:40;1.00;;;0.90;;
79149;SDS011;68563;45.644;13.782;2023-04-03T14:17:16;2.22;;;0.90;;
79149;SDS011;68563;45.644;13.782;2023-04-03T14:19:44;1.00;;;0.90;;
79149;SDS011;68563;45.644;13.782;2023-04-03T14:24:42;1.27;;;0.80;;
79149;SDS011;68563;45.644;13.782;2023-04-03T14:27:16;1.02;;;0.80;;
79149;SDS011;68563;45.644;13.782;2023-04-03T14:29:47;1.60;;;0.82;;
79149;SDS011;68563;45.644;13.782;2023-04-03T14:32:14;3.05;;;0.90;;
79149;SDS011;68563;45.644;13.782;2023-04-03T14:34:42;1.55;;;1.00;;
79149;SDS011;68563;45.644;13.782;2023-04-03T14:37:10;0.95;;;0.80;;
79149;SDS011;68563;45.644;13.782;2023-04-03T14:39:41;0.85;;;0.70;;
79149;SDS011;68563;45.644;13.782;2023-04-03T14:42:14;0.90;;;0.77;;
79149;SDS011;68563;45.644;13.782;2023-04-03T14:44:42;1.35;;;0.90;;
79149;SDS011;68563;45.644;13.782;2023-04-03T14:47:09;1.90;;;1.02;;
79149;SDS011;68563;45.644;13.782;2023-04-03T14:49:40;1.38;;;0.95;;
79149;SDS011;68563;45.644;13.782;2023-04-03T14:52:05;2.22;;;1.23;;
79149;SDS011;68563;45.644;13.782;2023-04-03T14:54:32;1.50;;;0.93;;
79149;SDS011;68563;45.644;13.782;2023-04-03T14:56:58;1.38;;;0.95;;
79149;SDS011;68563;45.644;13.782;2023-04-03T14:59:26;1.80;;;1.00;;
79149;SDS011;68563;45.644;13.782;2023-04-03T15:01:52;1.33;;;0.95;;
79149;SDS011;68563;45.644;13.782;2023-04-03T15:04:18;1.10;;;0.80;;
79149;SDS011;68563;45.644;13.782;2023-04-03T15:06:45;1.10;;;1.00;;
79149;SDS011;68563;45.644;13.782;2023-04-03T15:11:49;3.03;;;1.27;;
79149;SDS011;68563;45.644;13.782;2023-04-03T15:14:15;1.98;;;1.00;;
79149;SDS011;68563;45.644;13.782;2023-04-03T15:16:41;2.17;;;1.02;;
79149;SDS011;68563;45.644;13.782;2023-04-03T15:19:08;1.85;;;1.27;;
79149;SDS011;68563;45.644;13.782;2023-04-03T15:21:34;2.42;;;1.00;;
79149;SDS011;68563;45.644;13.782;2023-04-03T15:24:00;1.38;;;0.90;;
79149;SDS011;68563;45.644;13.782;2023-04-03T15:26:26;1.35;;;1.00;;
79149;SDS011;68563;45.644;13.782;2023-04-03T15:28:51;1.45;;;1.00;;
79149;SDS011;68563;45.644;13.782;2023-04-03T15:31:17;1.30;;;0.90;;
79149;SDS011;68563;45.644;13.782;2023-04-03T15:33:42;1.27;;;1.00;;
79149;SDS011;68563;45.644;13.782;2023-04-03T15:36:08;1.40;;;1.00;;
79149;SDS011;68563;45.644;13.782;2023-04-03T15:38:34;1.45;;;0.88;;
79149;SDS011;68563;45.644;13.782;2023-04-03T15:40:59;1.65;;;0.95;;
79149;SDS011;68563;45.644;13.782;2023-04-03T15:43:25;1.90;;;1.08;;
79149;SDS011;68563;45.644;13.782;2023-04-03T15:45:50;1.40;;;1.00;;
79149;SDS011;68563;45.644;13.782;2023-04-03T15:48:16;1.33;;;1.08;;
79149;SDS011;68563;45.644;13.782;2023-04-03T15:50:43;1.23;;;0.90;;
79149;SDS011;68563;45.644;13.782;2023-04-03T15:53:09;1.65;;;1.10;;
79149;SDS011;68563;45.644;13.782;2023-04-03T15:55:35;1.45;;;1.00;;
79149;SDS011;68563;45.644;13.782;2023-04-03T15:58:02;3.22;;;1.10;;
79149;SDS011;68563;45.644;13.782;2023-04-03T16:00:28;1.20;;;0.90;;
79149;SDS011;68563;45.644;13.782;2023-04-03T16:02:58;1.45;;;1.10;;
79149;SDS011;68563;45.644;13.782;2023-04-03T16:05:26;3.28;;;1.25;;
79149;SDS011;68563;45.644;13.782;2023-04-03T16:07:52;1.35;;;1.02;;
79149;SDS011;68563;45.644;13.782;2023-04-03T16:10:18;1.08;;;0.90;;
79149;SDS011;68563;45.644;13.782;2023-04-03T16:12:45;1.65;;;1.10;;
79149;SDS011;68563;45.644;13.782;2023-04-03T16:15:10;3.60;;;1.80;;
79149;SDS011;68563;45.644;13.782;2023-04-03T16:17:36;2.13;;;1.10;;
79149;SDS011;68563;45.644;13.782;2023-04-03T16:20:03;2.15;;;1.00;;
79149;SDS011;68563;45.644;13.782;2023-04-03T16:22:30;2.92;;;1.25;;
79149;SDS011;68563;45.644;13.782;2023-04-03T16:24:56;1.45;;;1.13;;
79149;SDS011;68563;45.644;13.782;2023-04-03T16:27:21;2.05;;;1.23;;
79149;SDS011;68563;45.644;13.782;2023-04-03T16:29:52;1.23;;;1.10;;
79149;SDS011;68563;45.644;13.782;2023-04-03T16:32:18;1.67;;;1.10;;
79149;SDS011;68563;45.644;13.782;2023-04-03T16:34:44;3.30;;;1.30;;
79149;SDS011;68563;45.644;13.782;2023-04-03T16:37:09;3.30;;;1.38;;
79149;SDS011;68563;45.644;13.782;2023-04-03T16:39:35;1.65;;;1.40;;
79149;SDS011;68563;45.644;13.782;2023-04-03T16:42:00;2.83;;;1.48;;
79149;SDS011;68563;45.644;13.782;2023-04-03T16:44:26;2.08;;;1.40;;
79149;SDS011;68563;45.644;13.782;2023-04-03T16:46:52;1.63;;;1.38;;
79149;SDS011;68563;45.644;13.782;2023-04-03T16:49:17;1.95;;;1.17;;
79149;SDS011;68563;45.644;13.782;2023-04-03T16:51:43;3.67;;;1.35;;
79149;SDS011;68563;45.644;13.782;2023-04-03T16:54:08;2.28;;;1.27;;
79149;SDS011;68563;45.644;13.782;2023-04-03T16:56:36;2.35;;;1.20;;